createdAt,value
2022-12-16T06:13:12.402Z,5.09
2022-12-16T06:15:38.742Z,5.08
2022-12-16T06:18:05.100Z,5.14
2022-12-16T06:20:31.442Z,5.20
2022-12-16T06:22:57.763Z,5.31
2022-12-16T07:57:36.016Z,7.06
2022-12-16T08:02:29.542Z,7.06
2022-12-16T08:04:55.714Z,7.01
2022-12-16T08:07:22.074Z,7.25
2022-12-16T08:09:48.422Z,7.64
2022-12-16T08:12:14.751Z,7.77
2022-12-16T08:14:41.103Z,7.88
2022-12-16T08:17:07.535Z,7.79
2022-12-16T08:19:33.864Z,7.93
2022-12-16T08:22:00.174Z,8.44
2022-12-16T08:24:26.580Z,8.75
2022-12-16T08:26:52.960Z,8.78
2022-12-16T08:29:43.130Z,8.75
2022-12-16T08:31:45.678Z,8.70
2022-12-16T08:34:12.032Z,8.95
2022-12-16T08:36:38.387Z,9.06
2022-12-16T08:39:04.735Z,8.89
2022-12-16T08:41:31.054Z,8.75
2022-12-16T08:43:57.436Z,9.07
2022-12-16T08:46:23.798Z,9.46
2022-12-16T08:48:50.100Z,9.93
2022-12-16T08:51:16.461Z,10.09
2022-12-16T08:53:42.848Z,10.37
2022-12-16T08:56:09.242Z,10.22
2022-12-16T08:58:35.596Z,10.76
2022-12-16T09:01:07.129Z,10.24
2022-12-16T09:03:28.394Z,10.98
2022-12-16T09:05:54.644Z,10.74
2022-12-16T09:08:21.007Z,11.16
2022-12-16T09:10:47.366Z,11.38
2022-12-16T09:13:13.708Z,11.70
2022-12-16T09:15:40.154Z,11.90
2022-12-16T09:18:06.482Z,12.32
2022-12-16T09:20:32.818Z,12.73
2022-12-16T09:22:59.156Z,13.36
2022-12-16T09:25:25.519Z,13.28
2022-12-16T09:27:51.903Z,13.11
2022-12-16T09:30:18.309Z,12.79
2022-12-16T09:32:44.670Z,13.54
2022-12-16T09:35:13.595Z,13.70
2022-12-16T09:37:37.371Z,14.22
2022-12-16T09:40:03.698Z,14.00
2022-12-16T09:42:30.047Z,14.08
2022-12-16T09:44:56.371Z,13.49
2022-12-16T09:47:22.803Z,13.87
2022-12-16T09:49:49.144Z,14.12
2022-12-16T09:52:18.556Z,14.22
2022-12-16T09:54:42.207Z,14.27
2022-12-16T09:57:08.580Z,14.12
2022-12-16T09:59:34.941Z,14.31
2022-12-16T10:02:01.388Z,14.47
2022-12-16T10:04:27.739Z,14.70
2022-12-16T10:06:54.059Z,14.70
2022-12-16T10:09:20.427Z,14.92
2022-12-16T10:11:46.813Z,15.22
2022-12-16T10:14:17.584Z,15.36
2022-12-16T10:16:39.472Z,15.47
2022-12-16T10:19:05.851Z,15.29
2022-12-16T10:21:32.191Z,15.44
2022-12-16T10:23:58.516Z,14.96
2022-12-16T10:26:24.889Z,15.38
2022-12-16T10:28:51.251Z,15.43
2022-12-16T10:31:17.685Z,16.03
2022-12-16T10:33:43.969Z,15.90
2022-12-16T10:36:10.356Z,15.94
2022-12-16T10:38:36.707Z,15.75
2022-12-16T10:41:03.046Z,15.62
2022-12-16T10:43:29.363Z,15.70
2022-12-16T10:45:55.806Z,16.37
2022-12-16T10:48:22.081Z,16.92
2022-12-16T10:50:48.461Z,17.07
2022-12-16T10:53:14.824Z,17.30
2022-12-16T10:55:41.210Z,17.06
2022-12-16T10:58:07.522Z,16.65
2022-12-16T11:00:36.315Z,16.68
2022-12-16T11:03:02.934Z,16.80
2022-12-16T11:05:29.058Z,17.09
2022-12-16T11:07:55.372Z,17.11
2022-12-16T11:10:23.234Z,17.14
2022-12-16T11:12:48.073Z,17.37
2022-12-16T11:15:29.259Z,17.27
2022-12-16T11:17:40.776Z,17.61
2022-12-16T11:20:07.160Z,17.65
2022-12-16T11:22:33.472Z,18.06
2022-12-16T11:24:59.856Z,18.02
2022-12-16T11:27:26.232Z,17.98
2022-12-16T11:29:52.610Z,18.20
2022-12-16T11:32:18.985Z,18.07
2022-12-16T11:34:45.377Z,18.52
2022-12-16T11:37:12.355Z,18.13
2022-12-16T11:39:38.117Z,18.12
2022-12-16T11:42:04.439Z,18.56
2022-12-16T11:44:30.906Z,18.88
2022-12-16T11:46:57.274Z,18.82
2022-12-16T11:49:25.617Z,19.04
2022-12-16T11:51:50.036Z,18.89
2022-12-16T11:54:16.428Z,18.96
2022-12-16T11:56:42.911Z,18.98
2022-12-16T11:59:09.173Z,18.83
2022-12-16T12:01:40.039Z,18.64
2022-12-16T12:04:01.985Z,18.97
2022-12-16T12:06:28.183Z,19.01
2022-12-16T12:08:54.535Z,18.94
2022-12-16T12:11:20.896Z,18.68
2022-12-16T12:13:47.452Z,18.90
2022-12-16T12:16:13.669Z,18.46
2022-12-16T12:18:39.943Z,18.57
2022-12-16T12:21:06.309Z,18.72
2022-12-16T12:23:33.056Z,18.94
2022-12-16T12:25:58.968Z,18.47
2022-12-16T12:28:25.351Z,18.21
2022-12-16T12:30:51.661Z,18.22
2022-12-16T12:33:18.007Z,18.08
2022-12-16T12:35:44.334Z,17.89
2022-12-16T12:38:10.721Z,17.72
2022-12-16T12:40:37.035Z,17.72
2022-12-16T12:43:03.460Z,17.84
2022-12-16T12:45:29.812Z,17.63
2022-12-16T12:47:56.183Z,17.43
2022-12-16T12:50:22.546Z,17.49
2022-12-16T12:52:48.920Z,17.32
2022-12-16T12:55:15.287Z,17.14
2022-12-16T12:57:41.676Z,17.20
2022-12-16T13:00:08.031Z,17.64
2022-12-16T13:02:34.482Z,17.68
2022-12-16T13:05:00.695Z,17.73
2022-12-16T13:07:27.115Z,17.99
2022-12-16T13:09:53.419Z,18.22
2022-12-16T13:12:19.762Z,18.20
2022-12-16T13:14:46.087Z,17.92
2022-12-16T13:17:12.444Z,17.57
2022-12-16T13:19:38.809Z,17.58
2022-12-16T13:22:05.151Z,17.73
2022-12-16T13:24:31.475Z,17.64
2022-12-16T13:26:57.817Z,17.73
2022-12-16T13:29:24.200Z,17.62
2022-12-16T13:31:50.597Z,17.52
2022-12-16T13:34:16.905Z,17.29
2022-12-16T13:36:43.279Z,17.15
2022-12-16T13:39:09.638Z,17.00
2022-12-16T13:41:35.973Z,16.68
2022-12-16T13:44:02.316Z,16.53
2022-12-16T13:46:28.662Z,16.60
2022-12-16T13:48:54.985Z,16.64
2022-12-16T13:51:21.340Z,16.63
2022-12-16T13:53:47.688Z,16.38
2022-12-16T13:56:14.023Z,16.09
2022-12-16T13:58:40.381Z,15.93
2022-12-16T14:01:06.803Z,15.83
2022-12-16T14:03:33.636Z,15.62
2022-12-16T14:05:59.456Z,15.29
2022-12-16T14:08:25.804Z,15.32
2022-12-16T14:10:52.197Z,15.33
2022-12-16T14:13:18.544Z,15.22
2022-12-16T14:15:44.957Z,15.13
2022-12-16T14:18:11.268Z,15.16
2022-12-16T14:20:37.650Z,15.07
2022-12-16T14:23:03.979Z,15.02
2022-12-16T14:25:30.320Z,14.98
2022-12-16T14:27:56.684Z,14.79
2022-12-16T14:30:23.079Z,14.71
2022-12-16T14:32:49.507Z,14.65
2022-12-16T14:35:15.822Z,14.57
2022-12-16T14:37:42.195Z,14.47
2022-12-16T14:40:08.582Z,14.43
2022-12-16T14:42:34.898Z,14.43
2022-12-16T14:45:01.250Z,14.40
2022-12-16T14:47:27.580Z,14.35
2022-12-16T14:49:53.933Z,14.21
2022-12-16T14:52:20.294Z,14.10
2022-12-16T14:54:46.713Z,14.05
2022-12-16T14:57:13.078Z,13.99
2022-12-16T14:59:39.413Z,14.04
2022-12-16T15:02:06.094Z,13.95
2022-12-16T15:04:32.299Z,13.89
2022-12-16T15:06:58.484Z,13.75
2022-12-16T15:09:24.871Z,13.65
2022-12-16T15:11:51.257Z,13.64
2022-12-16T15:14:17.621Z,13.68
2022-12-16T15:16:44.047Z,13.91
2022-12-16T15:19:10.367Z,13.86
2022-12-16T15:21:36.721Z,13.83
2022-12-16T15:24:03.071Z,13.79
2022-12-16T15:26:29.398Z,13.65
2022-12-16T15:28:55.801Z,13.67
2022-12-16T15:31:22.160Z,13.60
2022-12-16T15:33:48.513Z,13.59
2022-12-16T15:36:14.845Z,13.49
2022-12-16T15:38:41.209Z,13.42
2022-12-16T15:41:07.581Z,13.55
2022-12-16T15:43:34.176Z,13.64
2022-12-16T15:46:00.400Z,13.65
2022-12-16T15:48:26.710Z,13.58
2022-12-16T15:50:53.076Z,13.59
2022-12-16T15:53:19.461Z,13.57
2022-12-16T15:55:45.827Z,13.57
2022-12-16T15:58:12.159Z,13.58
2022-12-16T16:00:38.483Z,13.60
2022-12-16T16:03:05.051Z,13.59
2022-12-16T16:05:31.203Z,13.54
2022-12-16T16:08:03.533Z,13.52
2022-12-16T16:10:24.051Z,13.40
2022-12-16T16:12:50.397Z,13.29
2022-12-16T16:15:16.826Z,13.26
2022-12-16T16:17:43.216Z,13.23
2022-12-16T16:20:09.533Z,13.09
2022-12-16T16:22:35.944Z,13.13
2022-12-16T16:25:02.263Z,13.15
2022-12-16T16:27:28.626Z,13.07
2022-12-16T16:29:55.069Z,13.05
2022-12-16T16:32:21.407Z,13.00
2022-12-16T16:34:47.783Z,12.89
2022-12-16T16:37:14.139Z,12.71
2022-12-16T16:39:40.479Z,12.56
2022-12-16T16:42:06.863Z,12.52
2022-12-16T16:44:33.228Z,12.49
2022-12-16T16:46:59.694Z,12.48
2022-12-16T16:49:25.960Z,12.48
2022-12-16T16:51:52.304Z,12.42
2022-12-16T16:54:18.624Z,12.43
2022-12-16T16:56:45.030Z,12.41
2022-12-16T16:59:11.400Z,12.35
2022-12-16T17:01:37.964Z,12.30
2022-12-16T17:04:04.227Z,12.27
2022-12-16T17:06:30.527Z,12.26
2022-12-16T17:08:56.860Z,12.30
2022-12-16T17:11:23.201Z,12.29
2022-12-16T17:13:49.581Z,12.26
2022-12-16T17:16:15.993Z,12.25
2022-12-16T17:18:46.729Z,12.25
2022-12-16T17:21:08.596Z,12.21
2022-12-16T17:23:35.302Z,12.17
2022-12-16T17:26:01.303Z,12.17
2022-12-16T17:28:27.650Z,12.17
2022-12-16T17:30:54.092Z,12.20
2022-12-16T17:33:20.410Z,12.26
2022-12-16T17:35:46.790Z,12.29
2022-12-16T17:38:13.147Z,12.28
2022-12-16T17:40:39.528Z,12.09
2022-12-16T17:43:05.927Z,12.03
2022-12-16T17:45:32.295Z,12.06
2022-12-16T17:47:58.695Z,12.07
2022-12-16T17:50:25.084Z,12.05
2022-12-16T17:52:51.442Z,12.10
2022-12-16T17:55:17.785Z,12.07
2022-12-16T17:57:44.189Z,11.98
2022-12-16T18:00:10.537Z,11.80
2022-12-16T18:02:37.070Z,11.79
2022-12-16T18:05:03.239Z,11.85
2022-12-16T18:07:29.619Z,11.76
2022-12-16T18:09:55.963Z,11.58
2022-12-16T18:12:22.370Z,11.49
2022-12-16T18:14:48.823Z,11.49
2022-12-16T18:17:15.163Z,11.45
2022-12-16T18:19:41.544Z,11.41
2022-12-16T18:22:07.867Z,11.38
2022-12-16T18:24:34.250Z,11.37
2022-12-16T18:27:00.601Z,11.27
2022-12-16T18:29:26.980Z,11.28
2022-12-16T18:31:53.438Z,11.24
2022-12-16T18:34:19.710Z,11.13
2022-12-16T18:36:46.095Z,11.10
2022-12-16T18:39:12.509Z,11.10
2022-12-16T18:41:38.851Z,11.11
2022-12-16T18:44:05.207Z,11.13
2022-12-16T18:46:31.552Z,11.06
2022-12-16T18:48:57.914Z,11.07
2022-12-16T18:51:24.257Z,11.04
2022-12-16T18:53:50.580Z,10.99
2022-12-16T18:56:16.995Z,10.94
2022-12-16T18:58:51.233Z,10.91
2022-12-16T19:01:09.747Z,10.88
2022-12-16T19:03:36.068Z,10.87
2022-12-16T19:06:02.447Z,10.77
2022-12-16T19:08:28.798Z,10.79
2022-12-16T19:10:55.190Z,10.65
2022-12-16T19:13:21.553Z,10.67
2022-12-16T19:15:47.939Z,10.69
2022-12-16T19:18:14.302Z,10.65
2022-12-16T19:20:40.642Z,10.55
2022-12-16T19:23:07.006Z,10.61
2022-12-16T19:25:33.399Z,10.65
2022-12-16T19:27:59.769Z,10.60
2022-12-16T19:30:26.104Z,10.61
2022-12-16T19:32:52.424Z,10.52
2022-12-16T19:35:18.865Z,10.59
2022-12-16T19:37:45.201Z,10.48
2022-12-16T19:40:11.585Z,10.46
2022-12-16T19:42:37.912Z,10.55
2022-12-16T19:45:04.289Z,10.71
2022-12-16T19:47:30.678Z,10.79
2022-12-16T19:49:57.020Z,10.81
2022-12-16T19:52:23.378Z,10.76
2022-12-16T19:54:49.764Z,10.64
2022-12-16T19:57:16.097Z,10.63
2022-12-16T19:59:42.498Z,10.55
2022-12-16T20:02:09.115Z,10.42
2022-12-16T20:04:35.214Z,10.34
2022-12-16T20:07:01.750Z,10.46
2022-12-16T20:09:28.161Z,10.36
2022-12-16T20:11:54.475Z,10.24
2022-12-16T20:14:20.825Z,10.20
2022-12-16T20:16:47.163Z,10.19
2022-12-16T20:19:13.541Z,10.25
2022-12-16T20:21:39.940Z,10.26
2022-12-16T20:24:06.330Z,10.18
2022-12-16T20:26:32.686Z,10.12
2022-12-16T20:28:59.102Z,10.08
2022-12-16T20:31:25.431Z,10.09
2022-12-16T20:33:51.830Z,10.09
2022-12-16T20:36:18.242Z,10.06
2022-12-16T20:38:44.579Z,9.99
2022-12-16T20:41:10.965Z,9.89
2022-12-16T20:43:37.607Z,9.95
2022-12-16T20:46:03.686Z,9.95
2022-12-16T20:48:30.000Z,9.92
2022-12-16T20:50:56.373Z,9.95
2022-12-16T20:53:22.724Z,9.85
2022-12-16T20:55:49.086Z,9.81
2022-12-16T20:58:15.592Z,9.76
2022-12-16T21:00:42.011Z,9.74
2022-12-16T21:03:08.849Z,9.70
2022-12-16T21:05:35.277Z,9.68
2022-12-16T21:08:01.656Z,9.76
2022-12-16T21:10:27.990Z,9.73
2022-12-16T21:12:54.342Z,9.72
2022-12-16T21:15:20.736Z,9.60
2022-12-16T21:17:47.117Z,9.53
2022-12-16T21:20:13.448Z,9.54
2022-12-16T21:22:39.851Z,9.39
2022-12-16T21:25:06.177Z,9.34
2022-12-16T21:27:32.583Z,9.33
2022-12-16T21:29:58.971Z,9.07
2022-12-16T21:32:25.355Z,9.10
2022-12-16T21:34:51.846Z,9.13
2022-12-16T21:37:18.122Z,9.15
2022-12-16T21:39:44.494Z,9.05
2022-12-16T21:42:10.875Z,8.96
2022-12-16T21:44:37.228Z,8.96
2022-12-16T21:47:03.572Z,8.90
2022-12-16T21:49:29.892Z,8.86
2022-12-16T21:51:56.349Z,8.83
2022-12-16T21:54:22.630Z,8.85
2022-12-16T21:56:48.969Z,8.86
2022-12-16T21:59:15.329Z,8.84
2022-12-16T22:01:41.783Z,8.83
2022-12-16T22:04:08.025Z,8.80
2022-12-16T22:06:34.413Z,8.84
2022-12-16T22:09:00.732Z,8.86
2022-12-16T22:11:27.130Z,8.81
2022-12-16T22:13:53.454Z,8.95
2022-12-16T22:16:19.843Z,8.90
2022-12-16T22:18:46.211Z,8.80
2022-12-16T22:21:12.551Z,8.67
2022-12-16T22:23:39.312Z,8.72
2022-12-16T22:26:05.299Z,8.78
2022-12-16T22:28:31.675Z,8.72
2022-12-16T22:30:58.145Z,8.72
2022-12-16T22:33:24.399Z,8.66
2022-12-16T22:35:50.822Z,8.95
2022-12-16T22:38:17.197Z,9.30
2022-12-16T22:40:43.550Z,9.03
2022-12-16T22:43:09.897Z,8.81
2022-12-16T22:45:36.324Z,8.70
2022-12-16T22:48:02.640Z,8.81
2022-12-16T22:50:29.029Z,8.84
2022-12-16T22:52:55.523Z,8.78
2022-12-16T22:55:21.753Z,8.73
2022-12-16T22:57:48.123Z,8.86
2022-12-16T23:00:14.459Z,8.69
2022-12-16T23:02:40.835Z,8.62
2022-12-16T23:05:07.225Z,8.54
2022-12-16T23:07:33.508Z,8.57
2022-12-16T23:09:59.858Z,8.56
2022-12-16T23:12:26.181Z,8.48
2022-12-16T23:14:52.622Z,8.45
2022-12-16T23:17:19.016Z,8.33
2022-12-16T23:19:45.377Z,8.22
2022-12-16T23:22:11.766Z,8.43
2022-12-16T23:24:38.120Z,8.63
2022-12-16T23:27:04.486Z,8.56
2022-12-16T23:29:30.821Z,8.24
2022-12-16T23:31:57.180Z,8.19
2022-12-16T23:34:23.523Z,8.19
2022-12-16T23:36:49.865Z,8.24
2022-12-16T23:39:16.192Z,8.20
2022-12-16T23:41:42.557Z,8.15
2022-12-16T23:44:08.900Z,8.00
2022-12-16T23:46:35.322Z,7.87
2022-12-16T23:49:01.568Z,7.89
2022-12-16T23:51:27.931Z,8.00
2022-12-16T23:53:54.288Z,8.11
2022-12-16T23:56:20.634Z,8.17
2022-12-16T23:58:47.012Z,8.37
